Time;durP1;ratioP1;P1;durP2;ratioP2;P2;SDS_P1;SDS_P2;PMS_P1;PMS_P2;Temp;Humidity;BMP_temperature;BMP_pressure;BME280_temperature;BME280_humidity;BME280_pressure;Samples;Min_cycle;Max_cycle;Signal;HPM_P1;HPM_P2
2022/05/07 00:02:06;;;;;;;;;5.50;5.00;;;;;;;;5075321;27;45472;-81
2022/05/07 00:04:32;;;;;;;;;7.00;4.00;;;;;;;;5076467;27;45370;-82
2022/05/07 00:06:57;;;;;;;;;5.25;5.25;;;;;;;;5076437;27;45293;-79
2022/05/07 00:09:24;;;;;;;;;7.50;4.00;;;;;;;;5075508;27;45885;-81
2022/05/07 00:11:49;;;;;;;;;3.25;2.50;;;;;;;;5074264;27;45401;-81
2022/05/07 00:14:14;;;;;;;;;4.50;4.50;;;;;;;;5076098;27;45500;-80
2022/05/07 00:19:24;;;;;;;;;4.50;4.50;;;;;;;;5069018;27;45714;-81
2022/05/07 00:21:49;;;;;;;;;8.50;6.25;;;;;;;;5076544;28;45385;-81
2022/05/07 00:24:15;;;;;;;;;10.00;6.75;;;;;;;;5076681;28;45456;-81
2022/05/07 00:26:40;;;;;;;;;6.50;6.50;;;;;;;;5075571;27;45379;-81
2022/05/07 00:29:05;;;;;;;;;7.50;7.00;;;;;;;;5074896;27;45399;-80
2022/05/07 00:31:30;;;;;;;;;11.25;8.75;;;;;;;;5076293;28;45456;-80
2022/05/07 00:33:55;;;;;;;;;8.25;5.50;;;;;;;;5076361;28;45342;-82
2022/05/07 00:36:21;;;;;;;;;8.50;6.50;;;;;;;;5076815;28;45552;-82
2022/05/07 00:38:46;;;;;;;;;8.00;8.00;;;;;;;;5075887;28;45454;-82
2022/05/07 00:41:11;;;;;;;;;9.75;8.50;;;;;;;;5074448;27;45395;-82
2022/05/07 00:43:38;;;;;;;;;9.50;6.00;;;;;;;;5076062;28;45316;-82
2022/05/07 00:46:04;;;;;;;;;7.25;7.25;;;;;;;;5076311;27;45541;-84
2022/05/07 00:48:30;;;;;;;;;5.25;5.25;;;;;;;;5075827;27;45311;-82
2022/05/07 00:53:39;;;;;;;;;10.00;9.00;;;;;;;;5075716;28;45272;-79
2022/05/07 00:56:04;;;;;;;;;12.00;9.25;;;;;;;;5074612;27;45399;-78
2022/05/07 00:58:30;;;;;;;;;9.75;8.25;;;;;;;;5074882;27;45283;-79
2022/05/07 01:00:55;;;;;;;;;7.50;7.50;;;;;;;;5074827;27;45450;-80
2022/05/07 01:03:21;;;;;;;;;10.75;9.25;;;;;;;;5075910;28;45388;-79
2022/05/07 01:05:47;;;;;;;;;7.25;7.25;;;;;;;;5074799;27;45362;-79
2022/05/07 01:08:12;;;;;;;;;11.00;8.50;;;;;;;;5073521;27;45463;-77
2022/05/07 01:10:38;;;;;;;;;10.50;10.00;;;;;;;;5075024;27;45535;-78
2022/05/07 01:13:04;;;;;;;;;10.25;7.50;;;;;;;;5075246;27;45639;-79
2022/05/07 01:15:29;;;;;;;;;11.50;10.00;;;;;;;;5075888;27;45396;-78
2022/05/07 01:17:55;;;;;;;;;9.25;7.25;;;;;;;;5072281;27;46176;-81
2022/05/07 01:20:20;;;;;;;;;7.75;7.75;;;;;;;;5073616;27;45439;-80
2022/05/07 01:22:46;;;;;;;;;10.00;8.75;;;;;;;;5075589;28;45419;-78
2022/05/07 01:25:12;;;;;;;;;10.50;10.50;;;;;;;;5074634;27;45343;-79
2022/05/07 01:27:37;;;;;;;;;8.50;8.50;;;;;;;;5075682;28;47055;-80
2022/05/07 01:30:02;;;;;;;;;12.50;8.75;;;;;;;;5074821;27;45450;-80
2022/05/07 01:32:27;;;;;;;;;8.50;7.50;;;;;;;;5074843;27;45496;-80
2022/05/07 01:34:53;;;;;;;;;11.75;10.75;;;;;;;;5074180;27;45588;-80
2022/05/07 01:37:18;;;;;;;;;8.50;7.25;;;;;;;;5074441;27;46172;-80
2022/05/07 01:39:44;;;;;;;;;9.00;9.00;;;;;;;;5075252;27;45863;-80
2022/05/07 01:42:09;;;;;;;;;10.00;9.25;;;;;;;;5074152;27;45374;-80
2022/05/07 01:44:34;;;;;;;;;8.25;7.50;;;;;;;;5074465;27;45512;-79
2022/05/07 01:49:43;;;;;;;;;5.75;5.50;;;;;;;;5074212;27;45421;-80
2022/05/07 01:52:09;;;;;;;;;12.75;11.50;;;;;;;;5074296;27;45485;-78
2022/05/07 01:54:34;;;;;;;;;11.00;9.00;;;;;;;;5075052;27;45243;-78
2022/05/07 01:57:00;;;;;;;;;11.00;8.50;;;;;;;;5073782;27;46904;-80
2022/05/07 01:59:25;;;;;;;;;11.25;9.25;;;;;;;;5073714;27;45615;-79
2022/05/07 02:01:50;;;;;;;;;9.50;7.75;;;;;;;;5074324;27;45443;-79
2022/05/07 02:04:15;;;;;;;;;10.00;9.00;;;;;;;;5073661;27;45453;-79
2022/05/07 02:06:41;;;;;;;;;9.00;8.50;;;;;;;;5065990;27;47195;-80
2022/05/07 02:09:07;;;;;;;;;10.25;8.75;;;;;;;;5061254;28;45338;-79
2022/05/07 02:11:32;;;;;;;;;12.00;10.75;;;;;;;;5074708;27;45568;-82
2022/05/07 02:13:57;;;;;;;;;12.00;12.00;;;;;;;;5075162;28;45239;-82
2022/05/07 02:16:22;;;;;;;;;12.00;12.00;;;;;;;;5074275;27;46253;-81
2022/05/07 02:18:47;;;;;;;;;7.00;4.00;;;;;;;;5072142;27;45543;-79
2022/05/07 02:21:13;;;;;;;;;10.00;9.50;;;;;;;;5076299;27;45425;-81
2022/05/07 02:23:38;;;;;;;;;10.50;8.75;;;;;;;;5076557;27;45356;-78
2022/05/07 02:26:03;;;;;;;;;10.00;9.50;;;;;;;;5077747;27;46288;-79
2022/05/07 02:28:28;;;;;;;;;12.25;10.25;;;;;;;;5077536;27;45287;-81
2022/05/07 02:30:54;;;;;;;;;8.75;7.75;;;;;;;;5077668;28;45402;-80
2022/05/07 02:33:19;;;;;;;;;10.75;9.00;;;;;;;;5076931;28;45573;-82
2022/05/07 02:35:47;;;;;;;;;11.00;10.50;;;;;;;;5077797;27;46343;-80
2022/05/07 02:38:12;;;;;;;;;12.00;10.50;;;;;;;;5073227;28;45374;-80
2022/05/07 02:43:21;;;;;;;;;11.50;9.00;;;;;;;;5076778;27;45474;-80
2022/05/07 02:45:46;;;;;;;;;12.00;8.50;;;;;;;;5077561;27;45413;-81
2022/05/07 02:48:11;;;;;;;;;10.00;10.00;;;;;;;;5077079;27;45443;-81
2022/05/07 02:50:37;;;;;;;;;9.00;7.75;;;;;;;;5077518;27;45740;-82
2022/05/07 02:53:02;;;;;;;;;11.75;9.00;;;;;;;;5078021;28;45272;-81
2022/05/07 02:55:27;;;;;;;;;11.00;9.50;;;;;;;;5076949;27;45540;-81
2022/05/07 02:57:52;;;;;;;;;12.75;11.00;;;;;;;;5077009;27;45499;-82
2022/05/07 03:00:17;;;;;;;;;12.00;10.00;;;;;;;;5077372;27;45767;-80
2022/05/07 03:02:43;;;;;;;;;12.75;11.00;;;;;;;;5076043;27;45469;-81
2022/05/07 03:05:08;;;;;;;;;11.50;9.50;;;;;;;;5077968;27;45374;-81
2022/05/07 03:07:33;;;;;;;;;16.00;13.25;;;;;;;;5076483;27;45664;-81
2022/05/07 03:09:58;;;;;;;;;16.25;14.00;;;;;;;;5077046;27;45425;-81
2022/05/07 03:12:24;;;;;;;;;17.50;14.00;;;;;;;;5076985;27;46945;-81
2022/05/07 03:14:49;;;;;;;;;19.00;13.00;;;;;;;;5077217;27;46969;-80
2022/05/07 03:17:16;;;;;;;;;27.50;26.50;;;;;;;;5078119;27;45771;-81
2022/05/07 03:19:41;;;;;;;;;12.25;11.00;;;;;;;;5077711;28;45438;-80
2022/05/07 03:22:06;;;;;;;;;13.25;13.25;;;;;;;;5075989;27;45440;-80
2022/05/07 03:24:31;;;;;;;;;18.25;12.50;;;;;;;;5076994;27;45321;-79
2022/05/07 03:26:57;;;;;;;;;12.50;11.25;;;;;;;;5076716;27;45283;-81
2022/05/07 03:29:22;;;;;;;;;12.25;12.25;;;;;;;;5077723;27;45283;-80
2022/05/07 03:31:49;;;;;;;;;13.50;12.25;;;;;;;;5077334;28;45409;-77
2022/05/07 03:34:14;;;;;;;;;10.00;9.75;;;;;;;;5076481;27;45440;-78
2022/05/07 03:36:39;;;;;;;;;13.75;12.25;;;;;;;;5075238;27;45452;-78
2022/05/07 03:39:05;;;;;;;;;15.00;13.50;;;;;;;;5077055;28;45822;-78
2022/05/07 03:41:30;;;;;;;;;11.25;11.25;;;;;;;;5074744;27;45381;-78
2022/05/07 03:43:55;;;;;;;;;10.75;8.50;;;;;;;;5076298;27;47085;-77
2022/05/07 03:46:21;;;;;;;;;13.25;9.75;;;;;;;;5076445;27;45456;-77
2022/05/07 03:48:47;;;;;;;;;20.00;15.75;;;;;;;;5090531;27;45403;-79
2022/05/07 03:51:12;;;;;;;;;16.25;11.50;;;;;;;;5076602;28;45402;-79
2022/05/07 03:53:37;;;;;;;;;9.75;9.75;;;;;;;;5076243;27;45588;-80
2022/05/07 03:56:04;;;;;;;;;8.25;8.25;;;;;;;;5077040;27;45398;-79
2022/05/07 03:58:29;;;;;;;;;17.25;12.75;;;;;;;;5075897;28;45521;-80
2022/05/07 04:00:55;;;;;;;;;14.25;11.00;;;;;;;;5075259;27;45686;-78
2022/05/07 04:03:21;;;;;;;;;14.25;12.50;;;;;;;;5075679;27;46251;-79
2022/05/07 04:05:46;;;;;;;;;14.75;11.50;;;;;;;;5076429;27;45302;-78
2022/05/07 04:08:12;;;;;;;;;13.00;11.75;;;;;;;;5076734;27;45307;-79
2022/05/07 04:10:37;;;;;;;;;16.50;15.25;;;;;;;;5074580;27;45224;-77
2022/05/07 04:13:02;;;;;;;;;19.25;18.00;;;;;;;;5074726;27;47150;-77
2022/05/07 04:15:28;;;;;;;;;17.75;15.25;;;;;;;;5075890;27;45530;-78
2022/05/07 04:17:53;;;;;;;;;18.25;14.00;;;;;;;;5075812;27;45338;-79
2022/05/07 04:20:18;;;;;;;;;17.25;15.50;;;;;;;;5074882;27;45453;-80
2022/05/07 04:22:43;;;;;;;;;16.75;11.50;;;;;;;;5074608;27;47152;-80
2022/05/07 04:25:09;;;;;;;;;15.75;14.75;;;;;;;;5075272;27;45263;-79
2022/05/07 04:27:34;;;;;;;;;19.00;16.50;;;;;;;;5075843;27;45537;-79
2022/05/07 04:30:00;;;;;;;;;18.00;16.50;;;;;;;;5075155;27;45422;-83
2022/05/07 04:32:26;;;;;;;;;14.50;13.00;;;;;;;;5074814;27;45545;-80
2022/05/07 04:34:51;;;;;;;;;15.50;15.00;;;;;;;;5076191;28;45415;-80
2022/05/07 04:37:17;;;;;;;;;17.50;15.00;;;;;;;;5075663;27;45317;-77
2022/05/07 04:39:42;;;;;;;;;24.25;18.00;;;;;;;;5074818;27;45483;-77
2022/05/07 04:42:07;;;;;;;;;17.00;14.00;;;;;;;;5074006;27;46165;-77
2022/05/07 04:44:33;;;;;;;;;18.50;15.50;;;;;;;;5074429;27;45425;-77
2022/05/07 04:46:58;;;;;;;;;16.25;15.00;;;;;;;;5075350;27;45463;-80
2022/05/07 04:49:23;;;;;;;;;12.50;10.75;;;;;;;;5074409;28;45617;-78
2022/05/07 04:51:50;;;;;;;;;19.00;16.75;;;;;;;;5075198;27;46984;-79
2022/05/07 04:54:16;;;;;;;;;18.25;17.75;;;;;;;;5074437;27;45555;-80
2022/05/07 04:56:41;;;;;;;;;18.75;17.75;;;;;;;;5074137;27;45596;-77
2022/05/07 04:59:06;;;;;;;;;18.75;15.00;;;;;;;;5067250;27;45439;-77
2022/05/07 05:01:32;;;;;;;;;11.50;9.75;;;;;;;;5071071;27;47143;-76
2022/05/07 05:03:57;;;;;;;;;19.00;16.75;;;;;;;;5069795;28;45410;-77
2022/05/07 05:06:22;;;;;;;;;13.50;11.25;;;;;;;;5074184;27;45419;-76
2022/05/07 05:08:47;;;;;;;;;22.25;15.75;;;;;;;;5074552;27;45512;-82
2022/05/07 05:11:12;;;;;;;;;20.75;17.50;;;;;;;;5072992;27;47562;-81
2022/05/07 05:13:38;;;;;;;;;17.50;13.00;;;;;;;;5073891;27;45536;-80
2022/05/07 05:16:03;;;;;;;;;21.75;19.00;;;;;;;;5073425;27;45433;-82
2022/05/07 05:18:28;;;;;;;;;18.25;14.00;;;;;;;;5075530;27;45492;-82
2022/05/07 05:20:54;;;;;;;;;18.00;17.00;;;;;;;;5074416;28;46293;-82
2022/05/07 05:23:19;;;;;;;;;20.00;17.25;;;;;;;;5074553;27;45566;-79
2022/05/07 05:25:45;;;;;;;;;21.50;20.50;;;;;;;;5076683;27;45555;-79
2022/05/07 05:28:11;;;;;;;;;23.25;19.00;;;;;;;;5072997;27;45400;-78
2022/05/07 05:30:37;;;;;;;;;24.50;19.75;;;;;;;;5082361;27;46306;-81
2022/05/07 05:33:02;;;;;;;;;22.00;17.50;;;;;;;;5069702;27;45384;-83
2022/05/07 05:35:27;;;;;;;;;17.75;14.25;;;;;;;;5070949;27;45359;-82
2022/05/07 05:37:54;;;;;;;;;22.50;21.25;;;;;;;;5070452;27;45566;-82
2022/05/07 05:40:19;;;;;;;;;21.00;19.00;;;;;;;;5073423;27;47496;-82
2022/05/07 05:42:45;;;;;;;;;26.00;23.75;;;;;;;;5073635;27;45299;-81
2022/05/07 05:45:10;;;;;;;;;17.00;14.25;;;;;;;;5071779;27;45504;-80
2022/05/07 05:47:35;;;;;;;;;26.25;22.50;;;;;;;;5072371;27;45602;-81
2022/05/07 05:50:01;;;;;;;;;15.00;12.75;;;;;;;;5070554;27;46154;-80
2022/05/07 05:52:27;;;;;;;;;25.00;20.00;;;;;;;;5069353;27;45514;-81
2022/05/07 05:54:52;;;;;;;;;19.50;19.00;;;;;;;;5073027;27;45355;-81
2022/05/07 05:57:18;;;;;;;;;26.75;21.50;;;;;;;;5071800;27;45260;-82
2022/05/07 05:59:43;;;;;;;;;27.00;18.50;;;;;;;;5069930;27;47006;-81
2022/05/07 06:02:08;;;;;;;;;23.00;20.25;;;;;;;;5070238;27;45405;-82
2022/05/07 06:04:33;;;;;;;;;29.00;20.75;;;;;;;;5070380;27;45354;-82
2022/05/07 06:06:58;;;;;;;;;20.75;18.50;;;;;;;;5072821;28;45528;-82
2022/05/07 06:09:24;;;;;;;;;23.25;18.25;;;;;;;;5071468;27;46094;-82
2022/05/07 06:11:49;;;;;;;;;29.25;20.25;;;;;;;;5069521;27;45502;-81
2022/05/07 06:14:14;;;;;;;;;23.00;23.00;;;;;;;;5072957;27;45429;-80
2022/05/07 06:16:39;;;;;;;;;25.00;19.25;;;;;;;;5069832;27;45361;-80
2022/05/07 06:19:05;;;;;;;;;29.75;25.50;;;;;;;;5072115;27;48649;-81
2022/05/07 06:21:31;;;;;;;;;22.50;20.50;;;;;;;;5073146;28;45471;-81
2022/05/07 06:27:27;;;;;;;;;22.50;18.50;;;;;;;;5070569;27;45684;-81
2022/05/07 06:29:25;;;;;;;;;30.25;25.25;;;;;;;;5070424;28;48423;-83
2022/05/07 06:31:50;;;;;;;;;21.75;19.50;;;;;;;;5070498;27;45560;-83
2022/05/07 06:34:17;;;;;;;;;25.00;18.25;;;;;;;;5070084;27;45913;-82
2022/05/07 06:36:42;;;;;;;;;33.00;26.25;;;;;;;;5071145;28;45480;-82
2022/05/07 06:39:08;;;;;;;;;23.00;19.75;;;;;;;;5068895;27;45480;-80
2022/05/07 06:41:33;;;;;;;;;22.25;22.00;;;;;;;;5066625;27;46647;-79
2022/05/07 06:43:58;;;;;;;;;23.25;19.00;;;;;;;;5072430;27;45443;-78
2022/05/07 06:46:23;;;;;;;;;16.25;12.75;;;;;;;;5057241;27;45472;-78
2022/05/07 06:48:49;;;;;;;;;25.25;19.00;;;;;;;;5071956;27;46843;-80
2022/05/07 06:51:14;;;;;;;;;24.75;23.25;;;;;;;;5073673;28;45371;-81
2022/05/07 06:53:39;;;;;;;;;27.00;22.50;;;;;;;;5070011;27;45496;-81
2022/05/07 06:56:05;;;;;;;;;23.75;22.75;;;;;;;;5069489;27;45375;-80
2022/05/07 06:58:33;;;;;;;;;25.75;21.75;;;;;;;;5068005;28;45877;-80
2022/05/07 07:01:00;;;;;;;;;24.00;22.50;;;;;;;;5069415;27;45366;-79
2022/05/07 07:03:26;;;;;;;;;25.25;22.25;;;;;;;;5058264;28;45511;-80
2022/05/07 07:05:52;;;;;;;;;17.75;17.75;;;;;;;;5069069;28;45511;-82
2022/05/07 07:08:18;;;;;;;;;23.50;19.50;;;;;;;;5073473;27;46324;-82
2022/05/07 07:10:43;;;;;;;;;29.00;26.00;;;;;;;;5072185;27;45430;-80
2022/05/07 07:13:08;;;;;;;;;21.00;20.00;;;;;;;;5077269;27;45458;-79
2022/05/07 07:15:35;;;;;;;;;22.50;18.00;;;;;;;;5074267;27;45507;-78
2022/05/07 07:18:02;;;;;;;;;24.50;18.50;;;;;;;;5070665;27;46971;-80
2022/05/07 07:20:27;;;;;;;;;18.75;17.50;;;;;;;;5071974;27;45342;-79
2022/05/07 07:22:52;;;;;;;;;21.00;19.00;;;;;;;;5075347;27;45545;-80
2022/05/07 07:25:17;;;;;;;;;20.50;18.00;;;;;;;;5072308;27;45355;-81
2022/05/07 07:27:43;;;;;;;;;22.25;19.50;;;;;;;;5075833;27;45909;-81
2022/05/07 07:30:08;;;;;;;;;21.75;17.25;;;;;;;;5074323;27;45269;-82
2022/05/07 07:32:33;;;;;;;;;29.25;28.25;;;;;;;;5073173;27;45519;-83
2022/05/07 07:34:58;;;;;;;;;23.25;21.75;;;;;;;;5074242;27;45560;-81
2022/05/07 07:37:25;;;;;;;;;26.25;20.75;;;;;;;;5072670;27;45539;-82
2022/05/07 07:39:50;;;;;;;;;18.25;17.25;;;;;;;;5075840;27;45319;-82
2022/05/07 07:42:17;;;;;;;;;22.25;18.25;;;;;;;;5073451;27;48231;-75
2022/05/07 07:44:42;;;;;;;;;19.75;19.50;;;;;;;;5071187;27;45424;-75
2022/05/07 07:49:51;;;;;;;;;18.25;15.50;;;;;;;;5070750;28;45523;-76
2022/05/07 07:52:17;;;;;;;;;26.25;21.75;;;;;;;;5070661;27;45476;-75
2022/05/07 07:54:42;;;;;;;;;18.25;14.00;;;;;;;;5074888;27;45678;-76
2022/05/07 07:57:07;;;;;;;;;16.00;11.50;;;;;;;;5074256;27;46184;-78
2022/05/07 07:59:32;;;;;;;;;17.50;16.75;;;;;;;;5071504;27;45283;-77
2022/05/07 08:01:58;;;;;;;;;20.25;18.00;;;;;;;;5072846;27;45699;-78
2022/05/07 08:04:25;;;;;;;;;19.00;15.25;;;;;;;;5070886;27;45553;-77
2022/05/07 08:11:40;;;;;;;;;22.00;15.00;;;;;;;;5080086;27;46356;-77
2022/05/07 08:12:19;;;;;;;;;19.75;18.75;;;;;;;;5069998;28;45457;-76
2022/05/07 08:14:45;;;;;;;;;19.50;17.50;;;;;;;;5060363;28;45469;-77
2022/05/07 08:17:11;;;;;;;;;16.25;14.75;;;;;;;;5062868;28;46342;-77
2022/05/07 08:19:36;;;;;;;;;16.00;14.50;;;;;;;;5070713;27;45324;-78
2022/05/07 08:22:01;;;;;;;;;16.50;15.00;;;;;;;;5085123;27;45764;-77
2022/05/07 08:24:26;;;;;;;;;16.75;15.50;;;;;;;;5071666;27;45600;-75
2022/05/07 08:26:52;;;;;;;;;24.75;23.00;;;;;;;;5076468;27;45366;-77
2022/05/07 08:29:17;;;;;;;;;24.75;17.25;;;;;;;;5067188;27;45330;-77
2022/05/07 08:31:42;;;;;;;;;20.50;15.75;;;;;;;;5073650;27;45425;-77
2022/05/07 08:34:08;;;;;;;;;23.00;19.00;;;;;;;;5073066;27;45379;-77
2022/05/07 08:36:33;;;;;;;;;18.50;17.00;;;;;;;;5075093;27;46159;-77
2022/05/07 08:38:59;;;;;;;;;29.50;25.00;;;;;;;;5072761;28;46892;-77
2022/05/07 08:41:24;;;;;;;;;30.00;26.50;;;;;;;;5073989;27;45421;-76
2022/05/07 08:43:50;;;;;;;;;39.25;35.00;;;;;;;;5074408;27;45391;-78
2022/05/07 08:46:18;;;;;;;;;29.50;23.75;;;;;;;;5074565;27;46953;-77
2022/05/07 08:48:46;;;;;;;;;21.00;19.25;;;;;;;;5069138;28;45511;-78
2022/05/07 08:51:12;;;;;;;;;8.75;8.75;;;;;;;;5073654;28;45378;-76
2022/05/07 08:53:39;;;;;;;;;20.00;14.50;;;;;;;;5068409;28;45517;-76
2022/05/07 08:56:04;;;;;;;;;20.75;14.75;;;;;;;;5071978;28;46376;-77
2022/05/07 08:58:30;;;;;;;;;20.50;17.75;;;;;;;;5070196;28;45284;-77
2022/05/07 09:00:57;;;;;;;;;18.50;13.50;;;;;;;;5071666;28;45431;-75
2022/05/07 09:03:22;;;;;;;;;15.00;13.75;;;;;;;;5068981;28;45479;-74
2022/05/07 09:05:47;;;;;;;;;16.00;14.50;;;;;;;;5068910;28;46306;-76
2022/05/07 09:08:12;;;;;;;;;22.00;18.00;;;;;;;;5067576;28;45599;-76
2022/05/07 09:10:38;;;;;;;;;19.75;15.25;;;;;;;;5069733;28;45324;-77
2022/05/07 09:13:08;;;;;;;;;16.75;15.75;;;;;;;;5061701;28;45540;-74
2022/05/07 09:15:33;;;;;;;;;17.25;15.00;;;;;;;;5074519;27;47022;-73
2022/05/07 09:17:59;;;;;;;;;15.00;13.75;;;;;;;;5073525;27;45320;-74
2022/05/07 09:20:26;;;;;;;;;20.25;14.50;;;;;;;;5073897;27;45434;-76
2022/05/07 09:22:53;;;;;;;;;16.50;15.00;;;;;;;;5072634;27;45444;-77
2022/05/07 09:25:22;;;;;;;;;16.75;15.00;;;;;;;;5072311;27;46189;-76
2022/05/07 09:27:51;;;;;;;;;14.50;12.75;;;;;;;;5071982;27;45529;-75
2022/05/07 09:30:20;;;;;;;;;21.75;14.50;;;;;;;;5072098;28;45445;-76
2022/05/07 09:32:48;;;;;;;;;18.50;15.75;;;;;;;;5066736;28;45496;-76
2022/05/07 09:37:59;;;;;;;;;14.50;13.75;;;;;;;;5068929;28;45444;-76
2022/05/07 09:40:24;;;;;;;;;12.75;12.75;;;;;;;;5068595;28;45473;-77
2022/05/07 09:42:50;;;;;;;;;14.75;14.00;;;;;;;;5068451;28;45487;-75
2022/05/07 09:45:16;;;;;;;;;12.25;10.25;;;;;;;;5069707;28;46281;-76
2022/05/07 09:47:41;;;;;;;;;13.50;9.50;;;;;;;;5067389;28;45372;-76
2022/05/07 09:58:19;;;;;;;;;13.75;12.75;;;;;;;;5067311;28;45405;-77
2022/05/07 10:00:55;;;;;;;;;10.50;8.75;;;;;;;;5066851;28;45583;-77
2022/05/07 10:03:30;;;;;;;;;13.00;13.00;;;;;;;;5070727;28;45508;-76
2022/05/07 10:06:14;;;;;;;;;11.00;9.75;;;;;;;;5068623;27;45571;-76
2022/05/07 10:08:39;;;;;;;;;13.75;12.50;;;;;;;;5068928;28;45514;-76
2022/05/07 10:11:05;;;;;;;;;13.50;12.00;;;;;;;;5066232;27;45550;-77
2022/05/07 10:13:32;;;;;;;;;16.25;13.25;;;;;;;;5070795;28;45567;-76
2022/05/07 10:16:01;;;;;;;;;12.75;9.25;;;;;;;;5065638;28;45410;-74
2022/05/07 10:18:33;;;;;;;;;17.75;16.25;;;;;;;;5069961;28;46473;-76
2022/05/07 10:21:09;;;;;;;;;10.00;9.50;;;;;;;;5068779;28;45517;-77
2022/05/07 10:23:34;;;;;;;;;16.25;10.50;;;;;;;;5062924;28;45586;-75
2022/05/07 10:26:01;;;;;;;;;12.75;11.00;;;;;;;;5070865;27;46113;-78
2022/05/07 10:28:40;;;;;;;;;14.75;11.75;;;;;;;;5057499;28;45390;-77
2022/05/07 10:31:14;;;;;;;;;14.00;12.00;;;;;;;;5072896;27;45607;-78
2022/05/07 10:33:42;;;;;;;;;13.00;12.00;;;;;;;;5073779;27;45215;-77
2022/05/07 10:36:08;;;;;;;;;16.50;14.75;;;;;;;;5071620;27;46019;-78
2022/05/07 10:38:36;;;;;;;;;35.00;29.25;;;;;;;;5072203;27;45377;-78
2022/05/07 10:41:05;;;;;;;;;15.50;12.75;;;;;;;;5072604;27;45542;-77
2022/05/07 10:43:30;;;;;;;;;18.00;16.00;;;;;;;;5076445;27;45534;-78
2022/05/07 10:45:59;;;;;;;;;15.75;12.25;;;;;;;;5075955;27;46849;-77
2022/05/07 10:48:24;;;;;;;;;26.25;25.00;;;;;;;;5068249;28;45400;-76
2022/05/07 10:50:53;;;;;;;;;27.75;21.75;;;;;;;;5072167;28;45463;-77
2022/05/07 10:53:19;;;;;;;;;14.75;12.25;;;;;;;;5074078;27;45504;-77
2022/05/07 10:55:44;;;;;;;;;12.25;10.75;;;;;;;;5075022;28;46028;-77
2022/05/07 10:58:09;;;;;;;;;12.00;12.00;;;;;;;;5068484;28;45449;-77
2022/05/07 11:00:35;;;;;;;;;13.25;11.25;;;;;;;;5076913;27;45267;-77
2022/05/07 11:03:00;;;;;;;;;9.75;8.75;;;;;;;;5075307;27;45461;-76
2022/05/07 11:05:31;;;;;;;;;12.50;11.50;;;;;;;;5074936;27;47246;-77
2022/05/07 11:08:00;;;;;;;;;11.75;9.75;;;;;;;;5075109;27;45375;-76
2022/05/07 11:10:26;;;;;;;;;10.50;10.50;;;;;;;;5064774;27;45466;-74
2022/05/07 11:12:51;;;;;;;;;14.00;11.75;;;;;;;;5059841;28;45472;-77
2022/05/07 11:15:24;;;;;;;;;15.00;12.50;;;;;;;;5059635;28;47001;-76
2022/05/07 11:17:49;;;;;;;;;10.50;9.50;;;;;;;;5064342;28;45429;-76
2022/05/07 11:20:15;;;;;;;;;13.00;11.75;;;;;;;;5063475;28;45487;-76
2022/05/07 11:22:41;;;;;;;;;18.75;16.00;;;;;;;;5057631;28;46000;-78
2022/05/07 11:25:07;;;;;;;;;14.50;10.25;;;;;;;;5065658;27;46313;-76
2022/05/07 11:27:33;;;;;;;;;13.50;11.00;;;;;;;;5065224;28;45467;-77
2022/05/07 11:29:58;;;;;;;;;10.00;9.00;;;;;;;;5069962;28;45363;-77
2022/05/07 11:32:34;;;;;;;;;11.00;11.00;;;;;;;;5069187;28;45515;-77
2022/05/07 11:34:59;;;;;;;;;13.50;11.50;;;;;;;;5064995;28;46180;-79
2022/05/07 11:37:25;;;;;;;;;12.50;12.00;;;;;;;;5068192;28;45596;-77
2022/05/07 11:39:57;;;;;;;;;11.50;11.00;;;;;;;;5061195;28;45454;-78
2022/05/07 11:42:25;;;;;;;;;12.50;12.25;;;;;;;;5062599;27;45529;-77
2022/05/07 11:47:38;;;;;;;;;10.75;10.75;;;;;;;;5068902;28;45492;-77
2022/05/07 11:50:06;;;;;;;;;15.00;13.00;;;;;;;;5067418;28;45488;-77
2022/05/07 11:52:32;;;;;;;;;12.75;11.00;;;;;;;;5066839;28;45470;-77
2022/05/07 11:55:05;;;;;;;;;14.00;13.50;;;;;;;;5068817;28;47169;-77
2022/05/07 11:57:32;;;;;;;;;11.50;10.25;;;;;;;;5064860;28;45638;-76
2022/05/07 11:59:57;;;;;;;;;10.25;10.25;;;;;;;;5067518;28;45567;-78
2022/05/07 12:02:23;;;;;;;;;11.50;11.50;;;;;;;;5069103;27;45474;-74
2022/05/07 12:04:57;;;;;;;;;15.50;11.75;;;;;;;;5058973;28;45463;-77
2022/05/07 12:07:23;;;;;;;;;13.00;12.00;;;;;;;;5071064;28;45402;-77
2022/05/07 12:09:48;;;;;;;;;14.50;10.75;;;;;;;;5054671;28;45453;-76
2022/05/07 12:12:13;;;;;;;;;12.50;10.75;;;;;;;;5060003;28;45300;-75
2022/05/07 12:14:38;;;;;;;;;11.25;11.00;;;;;;;;5059530;28;45474;-76
2022/05/07 12:19:48;;;;;;;;;12.50;12.50;;;;;;;;5057592;28;45352;-78
2022/05/07 12:30:24;;;;;;;;;12.50;11.00;;;;;;;;5055564;28;45348;-77
2022/05/07 12:32:50;;;;;;;;;16.50;12.50;;;;;;;;5060541;28;45378;-76
2022/05/07 12:35:15;;;;;;;;;14.50;10.00;;;;;;;;5060169;28;46970;-78
2022/05/07 12:37:41;;;;;;;;;10.75;9.25;;;;;;;;5055397;28;45536;-75
2022/05/07 12:40:07;;;;;;;;;11.25;10.00;;;;;;;;5062379;28;45577;-77
2022/05/07 12:42:32;;;;;;;;;11.00;10.00;;;;;;;;5053827;27;45644;-76
2022/05/07 12:44:58;;;;;;;;;13.25;11.75;;;;;;;;5060386;27;46129;-77
2022/05/07 12:47:23;;;;;;;;;13.00;12.00;;;;;;;;5055524;28;45530;-78
2022/05/07 12:49:48;;;;;;;;;10.50;10.50;;;;;;;;5060202;28;45470;-77
2022/05/07 12:52:15;;;;;;;;;13.00;11.75;;;;;;;;5054310;28;45453;-77
2022/05/07 12:54:41;;;;;;;;;10.25;10.25;;;;;;;;5066006;28;46994;-77
2022/05/07 12:57:06;;;;;;;;;13.25;9.75;;;;;;;;5055832;28;45509;-78
2022/05/07 12:59:31;;;;;;;;;9.75;7.75;;;;;;;;5053987;28;45520;-78
2022/05/07 13:01:57;;;;;;;;;9.25;9.00;;;;;;;;5054810;27;45404;-77
2022/05/07 13:04:24;;;;;;;;;7.00;7.00;;;;;;;;5053242;28;47011;-77
2022/05/07 13:06:49;;;;;;;;;8.25;7.25;;;;;;;;5052158;28;45331;-77
2022/05/07 13:09:14;;;;;;;;;7.00;6.25;;;;;;;;5057759;27;45467;-76
2022/05/07 13:11:40;;;;;;;;;7.25;7.25;;;;;;;;5054752;28;45376;-77
2022/05/07 13:14:05;;;;;;;;;8.00;6.25;;;;;;;;5056200;28;45582;-77
2022/05/07 13:16:30;;;;;;;;;6.00;6.00;;;;;;;;5054748;28;45588;-75
2022/05/07 13:18:55;;;;;;;;;7.00;5.00;;;;;;;;5051705;28;45619;-77
2022/05/07 13:21:21;;;;;;;;;6.00;6.00;;;;;;;;5053905;28;45563;-77
2022/05/07 13:23:46;;;;;;;;;13.00;10.50;;;;;;;;5053620;28;46274;-77
2022/05/07 13:26:11;;;;;;;;;6.00;5.67;;;;;;;;5057925;28;46527;-77
2022/05/07 13:28:36;;;;;;;;;4.00;4.00;;;;;;;;5052971;28;46608;-77
2022/05/07 13:31:01;;;;;;;;;6.33;6.33;;;;;;;;5053688;27;45408;-77
2022/05/07 13:33:27;;;;;;;;;6.50;4.00;;;;;;;;5058996;28;46496;-76
2022/05/07 13:35:53;;;;;;;;;5.00;5.00;;;;;;;;5055685;27;45498;-75
2022/05/07 13:38:18;;;;;;;;;5.75;5.75;;;;;;;;5058036;28;46499;-73
2022/05/07 13:40:44;;;;;;;;;3.50;3.50;;;;;;;;5053775;28;46567;-74
2022/05/07 13:43:10;;;;;;;;;6.33;5.33;;;;;;;;5056396;28;47132;-74
2022/05/07 13:45:36;;;;;;;;;7.00;7.00;;;;;;;;5057242;27;45491;-76
2022/05/07 13:48:01;;;;;;;;;5.33;4.33;;;;;;;;5056189;28;45760;-75
2022/05/07 13:50:26;;;;;;;;;5.33;5.33;;;;;;;;5057666;28;45519;-76
2022/05/07 13:52:52;;;;;;;;;8.00;6.00;;;;;;;;5057709;27;45441;-77
2022/05/07 13:55:17;;;;;;;;;4.33;4.33;;;;;;;;5057079;28;45519;-77
2022/05/07 13:57:42;;;;;;;;;4.00;4.00;;;;;;;;5055048;28;45452;-76
2022/05/07 14:00:08;;;;;;;;;7.50;6.00;;;;;;;;5058362;27;45522;-75
2022/05/07 14:02:36;;;;;;;;;7.00;7.00;;;;;;;;5058004;27;45512;-76
2022/05/07 14:05:02;;;;;;;;;5.67;4.67;;;;;;;;5058030;27;46419;-77
2022/05/07 14:07:28;;;;;;;;;3.33;3.33;;;;;;;;5054582;28;45572;-76
2022/05/07 14:09:53;;;;;;;;;7.75;7.75;;;;;;;;5055498;28;45674;-77
2022/05/07 14:12:19;;;;;;;;;7.00;6.33;;;;;;;;5059637;27;46323;-77
2022/05/07 14:14:45;;;;;;;;;6.75;6.25;;;;;;;;5060028;27;45537;-76
2022/05/07 14:17:11;;;;;;;;;11.50;10.25;;;;;;;;5058508;27;45514;-76
2022/05/07 14:19:36;;;;;;;;;6.33;6.33;;;;;;;;5060219;28;46150;-76
2022/05/07 14:22:02;;;;;;;;;9.00;9.00;;;;;;;;5063752;28;45524;-75
2022/05/07 14:24:27;;;;;;;;;3.00;2.00;;;;;;;;5061703;28;45866;-76
2022/05/07 14:26:52;;;;;;;;;2.00;2.00;;;;;;;;5063053;28;45598;-75
2022/05/07 14:29:17;;;;;;;;;1.67;0.67;;;;;;;;5054655;28;45392;-76
2022/05/07 14:31:43;;;;;;;;;2.33;1.00;;;;;;;;5055180;28;46259;-73
2022/05/07 14:34:08;;;;;;;;;0.00;0.00;;;;;;;;5060665;28;46176;-76
2022/05/07 14:36:33;;;;;;;;;5.00;4.67;;;;;;;;5057230;28;45563;-74
2022/05/07 14:38:58;;;;;;;;;3.67;2.00;;;;;;;;5056549;27;45680;-77
2022/05/07 14:41:24;;;;;;;;;2.00;0.67;;;;;;;;5053186;28;46135;-77
2022/05/07 14:43:49;;;;;;;;;1.33;1.33;;;;;;;;5058479;27;45370;-76
2022/05/07 14:46:15;;;;;;;;;3.00;1.67;;;;;;;;5058761;28;45737;-76
2022/05/07 14:48:40;;;;;;;;;2.00;2.00;;;;;;;;5063938;28;45962;-75
2022/05/07 14:51:05;;;;;;;;;2.00;1.00;;;;;;;;5061743;28;47282;-77
2022/05/07 14:53:30;;;;;;;;;2.67;2.67;;;;;;;;5054870;28;45568;-77
2022/05/07 14:55:56;;;;;;;;;1.00;1.00;;;;;;;;5060312;27;45432;-77
2022/05/07 14:58:21;;;;;;;;;3.00;3.00;;;;;;;;5058030;28;45569;-77
2022/05/07 15:00:46;;;;;;;;;3.33;2.33;;;;;;;;5058016;27;47288;-77